PGUA/UAM METAR and TAF weather

Enter ICAO airport designator
Station Type Date Time Source
PGUA METAR 2022/01/18 06:55 UTC NOAA

PGUA 180655Z 07017KT 10SM SCT010 BKN014 26/23 A2982 RMK AO2A SLP088 T02610233 $


Station Type Date Time Source
PGUA Decoded METAR 2022/01/18 06:55 UTC NOAA

Andersen, Mariana Is, Andersen Air Force Base, GU, United States (PGUA) 13-35N 144-56E 187M
Jan 18, 2022 - 01:55 AM EST / 2022.01.18 0655 UTC
Wind: from the ENE (070 degrees) at 20 MPH (17 KT):0
Visibility: 10 mile(s):0
Sky conditions: mostly cloudy
Temperature: 79.0 F (26.1 C)
Dew Point: 73.9 F (23.3 C)
Relative Humidity: 84%
Pressure (altimeter): 29.82 in. Hg (1009 hPa)
ob: PGUA 180655Z 07017KT 10SM SCT010 BKN014 26/23 A2982 RMK AO2A SLP088 T02610233
cycle: 7

Station Type Date Time Source
PGUA TAF 2022/01/18 02:38 UTC NOAA

TAF PGUA 180230Z 1802/1908 08015G20KT 9999 SCT015 QNH2984INS
TEMPO 1802/1810 07015G25KT 8000 -SHRA BKN015
TEMPO 1810/1818 07015G25KT 4800 -SHRA BKN012
TEMPO 1818/1904 05020G30KT 4800 -SHRA BKN012 TX28/1802Z TN24/1815Z

Example: see airport list